createdAt,value
2022-10-09T00:01:10.301Z,6.10
2022-10-09T00:03:39.544Z,6.00
2022-10-09T00:06:09.410Z,6.00
2022-10-09T00:08:39.277Z,6.10
2022-10-09T00:11:07.952Z,6.10
2022-10-09T00:13:36.064Z,6.10
2022-10-09T00:16:05.698Z,6.90
2022-10-09T00:18:34.986Z,6.10
2022-10-09T00:21:03.178Z,6.00
2022-10-09T00:23:31.174Z,6.00
2022-10-09T00:26:00.947Z,6.00
2022-10-09T00:28:34.271Z,6.00
2022-10-09T00:31:05.779Z,5.90
2022-10-09T00:33:35.425Z,6.20
2022-10-09T00:36:04.382Z,5.80
2022-10-09T00:38:32.223Z,7.00
2022-10-09T00:41:00.696Z,5.80
2022-10-09T00:43:42.002Z,5.70
2022-10-09T00:46:21.829Z,5.70
2022-10-09T00:48:59.129Z,6.50
2022-10-09T00:51:27.566Z,6.30
2022-10-09T00:53:55.600Z,5.60
2022-10-09T00:56:23.882Z,6.10
2022-10-09T00:58:55.561Z,5.40
2022-10-09T01:01:23.510Z,6.40
2022-10-09T01:03:53.257Z,5.40
2022-10-09T01:06:32.280Z,6.30
2022-10-09T01:09:07.167Z,5.30
2022-10-09T01:11:42.325Z,5.30
2022-10-09T01:14:19.335Z,5.90
2022-10-09T01:16:54.666Z,5.30
2022-10-09T01:19:42.020Z,5.30
2022-10-09T01:22:22.517Z,6.40
2022-10-09T01:24:57.679Z,5.30
2022-10-09T01:27:28.577Z,5.30
2022-10-09T01:30:00.650Z,5.30
2022-10-09T01:32:32.526Z,5.30
2022-10-09T01:35:01.713Z,6.00
2022-10-09T01:37:31.882Z,5.30
2022-10-09T01:40:00.421Z,5.30
2022-10-09T01:42:31.080Z,5.20
2022-10-09T01:44:58.954Z,6.00
2022-10-09T01:47:27.394Z,5.20
2022-10-09T01:49:59.949Z,5.60
2022-10-09T01:52:43.003Z,5.20
2022-10-09T01:55:21.566Z,5.20
2022-10-09T01:57:55.435Z,5.40
2022-10-09T02:00:23.718Z,5.90
2022-10-09T02:02:53.315Z,6.30
2022-10-09T02:05:27.151Z,5.20
2022-10-09T02:07:55.580Z,5.20
2022-10-09T02:10:25.971Z,5.20
2022-10-09T02:12:58.528Z,5.60
2022-10-09T02:15:32.107Z,6.10
2022-10-09T02:18:05.267Z,5.30
2022-10-09T02:20:37.150Z,5.50
2022-10-09T02:23:08.517Z,5.30
2022-10-09T02:25:36.814Z,5.40
2022-10-09T02:28:07.014Z,5.40
2022-10-09T02:30:44.983Z,5.90
2022-10-09T02:33:12.839Z,5.40
2022-10-09T02:35:41.377Z,5.80
2022-10-09T02:38:09.247Z,5.30
2022-10-09T02:40:37.063Z,5.30
2022-10-09T02:43:06.293Z,5.30
2022-10-09T02:45:34.159Z,6.10
2022-10-09T02:48:01.991Z,5.30
2022-10-09T02:50:29.824Z,6.30
2022-10-09T02:52:57.669Z,5.30
2022-10-09T02:55:25.502Z,5.30
2022-10-09T02:57:53.351Z,5.20
2022-10-09T03:00:22.596Z,5.20
2022-10-09T03:02:51.236Z,5.20
2022-10-09T03:05:19.504Z,5.20
2022-10-09T03:07:51.433Z,5.10
2022-10-09T03:10:20.006Z,5.10
2022-10-09T03:12:48.537Z,5.70
2022-10-09T03:15:17.112Z,5.10
2022-10-09T03:17:46.318Z,5.10
2022-10-09T03:20:14.190Z,6.60
2022-10-09T03:22:42.052Z,5.10
2022-10-09T03:25:10.289Z,5.10
2022-10-09T03:27:38.147Z,5.10
2022-10-09T03:30:07.263Z,5.10
2022-10-09T03:32:35.149Z,6.90
2022-10-09T03:35:04.624Z,5.40
2022-10-09T03:37:32.631Z,5.10
2022-10-09T03:40:00.683Z,6.20
2022-10-09T03:42:28.625Z,5.00
2022-10-09T03:44:57.516Z,5.20
2022-10-09T03:47:25.473Z,5.00
2022-10-09T03:49:53.322Z,4.90
2022-10-09T03:52:22.546Z,4.90
2022-10-09T03:54:50.566Z,4.90
2022-10-09T03:57:18.455Z,4.80
2022-10-09T03:59:46.277Z,6.40
2022-10-09T04:02:14.163Z,4.70
2022-10-09T04:04:42.048Z,4.70
2022-10-09T04:07:09.925Z,4.60
2022-10-09T04:09:39.147Z,5.50
2022-10-09T04:12:07.177Z,4.50
2022-10-09T04:14:35.086Z,4.50
2022-10-09T04:17:02.924Z,4.40
2022-10-09T04:19:30.759Z,4.40
2022-10-09T04:21:58.662Z,4.40
2022-10-09T04:24:26.503Z,4.30
2022-10-09T04:26:56.877Z,4.40
2022-10-09T04:29:24.979Z,4.40
2022-10-09T04:31:52.977Z,4.40
2022-10-09T04:34:20.985Z,4.30
2022-10-09T04:36:48.964Z,4.30
2022-10-09T04:39:16.830Z,4.30
2022-10-09T04:41:44.668Z,4.20
2022-10-09T04:44:13.954Z,4.20
2022-10-09T04:46:41.797Z,4.20
2022-10-09T04:49:12.795Z,4.20
2022-10-09T04:51:40.899Z,4.20
2022-10-09T04:54:09.024Z,4.10
2022-10-09T04:56:36.859Z,4.10
2022-10-09T04:59:05.134Z,4.00
2022-10-09T05:01:38.336Z,4.10
2022-10-09T05:04:06.588Z,4.00
2022-10-09T05:06:34.434Z,4.00
2022-10-09T05:09:02.281Z,4.00
2022-10-09T05:11:30.117Z,5.10
2022-10-09T05:13:59.479Z,3.90
2022-10-09T05:16:29.396Z,3.90
2022-10-09T05:19:00.166Z,3.90
2022-10-09T05:21:28.756Z,3.90
2022-10-09T05:23:56.903Z,3.90
2022-10-09T05:26:26.641Z,3.90
2022-10-09T05:28:54.802Z,3.90
2022-10-09T05:31:24.407Z,3.90
2022-10-09T05:33:52.710Z,3.90
2022-10-09T05:36:22.271Z,3.90
2022-10-09T05:38:50.135Z,4.50
2022-10-09T05:41:19.680Z,3.90
2022-10-09T05:43:49.102Z,3.90
2022-10-09T05:46:19.399Z,3.90
2022-10-09T05:48:51.770Z,3.90
2022-10-09T05:51:23.601Z,3.90
2022-10-09T05:53:52.355Z,3.90
2022-10-09T05:56:22.800Z,3.90
2022-10-09T05:58:52.229Z,3.90
2022-10-09T06:01:20.388Z,3.90
2022-10-09T06:03:50.831Z,4.00
2022-10-09T06:06:19.871Z,4.00
2022-10-09T06:08:49.202Z,4.00
2022-10-09T06:11:19.826Z,4.00
2022-10-09T06:13:48.526Z,4.00
2022-10-09T06:16:17.909Z,4.10
2022-10-09T06:18:49.358Z,4.10
2022-10-09T06:21:17.903Z,4.10
2022-10-09T06:23:49.681Z,4.20
2022-10-09T06:26:20.102Z,4.20
2022-10-09T06:28:48.292Z,4.30
2022-10-09T06:31:17.941Z,5.30
2022-10-09T06:33:47.459Z,4.30
2022-10-09T06:36:17.301Z,4.30
2022-10-09T06:38:45.260Z,4.40
2022-10-09T06:41:15.533Z,4.40
2022-10-09T06:43:49.171Z,6.00
2022-10-09T06:46:17.181Z,4.50
2022-10-09T06:48:45.119Z,4.70
2022-10-09T06:51:14.395Z,4.50
2022-10-09T06:53:44.127Z,4.60
2022-10-09T06:56:14.105Z,4.70
2022-10-09T06:58:44.178Z,4.70
2022-10-09T07:01:14.241Z,4.80
2022-10-09T07:03:43.422Z,4.90
2022-10-09T07:06:13.519Z,5.00
2022-10-09T07:08:42.906Z,5.10
2022-10-09T07:11:12.743Z,5.20
2022-10-09T07:13:40.925Z,5.40
2022-10-09T07:16:11.587Z,6.40
2022-10-09T07:18:40.052Z,5.70
2022-10-09T07:21:09.619Z,6.40
2022-10-09T07:23:37.748Z,4.40
2022-10-09T07:26:14.961Z,6.20
2022-10-09T07:28:43.966Z,6.40
2022-10-09T07:31:14.016Z,6.60
2022-10-09T07:33:42.675Z,6.70
2022-10-09T07:36:11.852Z,6.90
2022-10-09T07:38:39.885Z,7.00
2022-10-09T07:41:10.175Z,7.10
2022-10-09T07:43:39.170Z,7.20
2022-10-09T07:46:09.407Z,7.40
2022-10-09T07:48:39.071Z,7.50
2022-10-09T07:51:11.638Z,7.60
2022-10-09T07:53:40.062Z,7.80
2022-10-09T07:56:08.641Z,7.90
2022-10-09T07:58:36.691Z,8.00
2022-10-09T08:01:05.984Z,8.20
2022-10-09T08:03:34.128Z,8.30
2022-10-09T08:06:04.576Z,8.50
2022-10-09T08:08:32.556Z,8.60
2022-10-09T08:11:00.775Z,8.80
2022-10-09T08:13:28.676Z,8.90
2022-10-09T08:15:59.936Z,9.00
2022-10-09T08:18:27.806Z,9.20
2022-10-09T08:20:59.785Z,9.40
2022-10-09T08:23:29.316Z,9.50
2022-10-09T08:25:57.240Z,9.60
2022-10-09T08:28:25.502Z,9.80
2022-10-09T08:30:53.512Z,9.90
2022-10-09T08:33:22.128Z,10.10
2022-10-09T08:35:50.243Z,10.20
2022-10-09T08:38:37.877Z,10.40
2022-10-09T08:41:11.457Z,10.50
2022-10-09T08:43:45.122Z,10.70
2022-10-09T08:46:20.982Z,10.90
2022-10-09T08:48:51.270Z,11.10
2022-10-09T08:51:23.995Z,11.30
2022-10-09T08:53:57.266Z,11.50
2022-10-09T08:56:28.166Z,11.60
2022-10-09T08:58:56.430Z,11.80
2022-10-09T09:01:33.948Z,11.90
2022-10-09T09:04:28.437Z,12.10
2022-10-09T09:07:03.203Z,12.20
2022-10-09T09:09:43.357Z,12.40
2022-10-09T09:12:23.123Z,12.60
2022-10-09T09:15:02.349Z,12.80
2022-10-09T09:17:38.211Z,12.90
2022-10-09T09:20:15.497Z,13.10
2022-10-09T09:22:48.789Z,13.20
2022-10-09T09:25:22.154Z,13.30
2022-10-09T09:27:53.718Z,13.40
2022-10-09T09:30:25.552Z,13.60
2022-10-09T09:33:01.236Z,13.70
2022-10-09T09:35:35.193Z,13.80
2022-10-09T09:38:03.166Z,13.90
2022-10-09T09:40:37.197Z,14.10
2022-10-09T09:43:16.347Z,14.20
2022-10-09T09:45:44.842Z,14.30
2022-10-09T09:48:17.080Z,14.30
2022-10-09T09:50:53.050Z,14.40
2022-10-09T09:53:36.603Z,14.50
2022-10-09T09:56:05.608Z,14.60
2022-10-09T09:58:39.366Z,14.80
2022-10-09T10:01:08.369Z,14.90
2022-10-09T10:03:37.336Z,15.10
2022-10-09T10:06:05.619Z,15.20
2022-10-09T10:08:35.377Z,15.20
2022-10-09T10:11:06.838Z,15.40
2022-10-09T10:13:38.990Z,15.40
2022-10-09T10:16:08.609Z,15.60
2022-10-09T10:18:40.454Z,15.70
2022-10-09T10:21:12.534Z,15.70
2022-10-09T10:23:43.596Z,15.60
2022-10-09T10:26:22.423Z,15.70
2022-10-09T10:28:55.787Z,15.70
2022-10-09T10:31:36.261Z,15.80
2022-10-09T10:34:08.458Z,16.30
2022-10-09T10:36:37.252Z,16.10
2022-10-09T10:39:11.775Z,16.10
2022-10-09T10:41:45.442Z,16.50
2022-10-09T10:44:23.522Z,16.20
2022-10-09T10:46:55.789Z,16.40
2022-10-09T10:49:25.386Z,16.30
2022-10-09T10:52:10.083Z,16.30
2022-10-09T10:54:41.538Z,16.40
2022-10-09T10:57:15.478Z,16.70
2022-10-09T10:59:55.175Z,16.50
2022-10-09T11:02:47.760Z,16.70
2022-10-09T11:05:27.509Z,16.40
2022-10-09T11:08:07.785Z,16.50
2022-10-09T11:10:39.730Z,16.50
2022-10-09T11:13:13.037Z,16.60
2022-10-09T11:15:53.853Z,16.50
2022-10-09T11:18:31.951Z,16.60
2022-10-09T11:21:24.323Z,17.00
2022-10-09T11:24:10.439Z,16.80
2022-10-09T11:26:44.672Z,16.90
2022-10-09T11:29:18.059Z,17.00
2022-10-09T11:31:54.754Z,17.00
2022-10-09T11:34:27.810Z,17.00
2022-10-09T11:36:56.380Z,17.20
2022-10-09T11:39:26.983Z,17.00
2022-10-09T11:41:56.626Z,17.00
2022-10-09T11:44:39.402Z,17.10
2022-10-09T11:47:16.895Z,17.30
2022-10-09T11:49:58.665Z,17.40
2022-10-09T11:52:34.139Z,17.30
2022-10-09T11:55:16.379Z,17.30
2022-10-09T11:57:44.399Z,17.20
2022-10-09T12:00:13.087Z,17.20
2022-10-09T12:02:43.929Z,17.20
2022-10-09T12:05:21.130Z,17.30
2022-10-09T12:07:49.077Z,17.40
2022-10-09T12:10:33.509Z,17.40
2022-10-09T12:13:04.888Z,17.30
2022-10-09T12:15:40.890Z,17.60
2022-10-09T12:18:24.258Z,17.40
2022-10-09T12:20:52.739Z,17.50
2022-10-09T12:23:27.504Z,17.60
2022-10-09T12:25:57.138Z,17.70
2022-10-09T12:28:30.385Z,17.60
2022-10-09T12:31:00.594Z,17.70
2022-10-09T12:33:35.895Z,17.70
2022-10-09T12:36:07.620Z,17.80
2022-10-09T12:38:35.571Z,17.60
2022-10-09T12:41:06.910Z,17.50
2022-10-09T12:43:36.392Z,17.60
2022-10-09T12:46:04.741Z,17.60
2022-10-09T12:48:39.827Z,17.70
2022-10-09T12:51:16.824Z,17.60
2022-10-09T12:53:49.136Z,17.30
2022-10-09T12:56:23.845Z,17.10
2022-10-09T12:58:52.887Z,17.10
2022-10-09T13:01:21.248Z,17.10
2022-10-09T13:03:57.310Z,17.20
2022-10-09T13:06:27.662Z,17.10
2022-10-09T13:08:58.298Z,17.30
2022-10-09T13:11:32.295Z,17.40
2022-10-09T13:14:00.243Z,17.30
2022-10-09T13:16:28.162Z,17.40
2022-10-09T13:19:02.119Z,17.30
2022-10-09T13:21:34.437Z,17.10
2022-10-09T13:24:13.432Z,17.20
2022-10-09T13:26:44.656Z,17.10
2022-10-09T13:29:13.738Z,17.10
2022-10-09T13:31:44.219Z,17.10
2022-10-09T13:34:14.707Z,17.00
2022-10-09T13:36:42.781Z,16.90
2022-10-09T13:39:14.155Z,16.80
2022-10-09T13:41:43.186Z,16.80
2022-10-09T13:44:11.475Z,17.30
2022-10-09T13:46:39.355Z,16.80
2022-10-09T13:49:07.186Z,16.90
2022-10-09T13:51:36.391Z,16.90
2022-10-09T13:54:04.469Z,16.90
2022-10-09T13:56:32.796Z,16.80
2022-10-09T13:59:00.666Z,16.80
2022-10-09T14:01:28.611Z,16.80
2022-10-09T14:03:56.825Z,16.80
2022-10-09T14:06:24.655Z,16.80
2022-10-09T14:08:54.118Z,16.80
2022-10-09T14:11:22.071Z,16.80
2022-10-09T14:13:49.943Z,16.70
2022-10-09T14:16:17.785Z,16.70
2022-10-09T14:18:45.677Z,16.70
2022-10-09T14:21:15.696Z,16.60
2022-10-09T14:23:43.890Z,16.50
2022-10-09T14:26:13.092Z,16.60
2022-10-09T14:28:41.696Z,16.50
2022-10-09T14:31:09.624Z,16.70
2022-10-09T14:33:37.472Z,16.40
2022-10-09T14:36:09.823Z,16.40
2022-10-09T14:38:38.254Z,16.30
2022-10-09T14:41:06.703Z,16.20
2022-10-09T14:43:36.258Z,16.20
2022-10-09T14:46:05.886Z,16.20
2022-10-09T14:48:33.768Z,16.10
2022-10-09T14:51:05.991Z,16.10
2022-10-09T14:53:34.779Z,16.10
2022-10-09T14:56:04.326Z,16.10
2022-10-09T14:58:32.167Z,16.10
2022-10-09T15:01:01.462Z,16.00
2022-10-09T15:03:31.049Z,15.90
2022-10-09T15:05:59.303Z,15.90
2022-10-09T15:08:27.686Z,15.90
2022-10-09T15:10:55.943Z,15.80
2022-10-09T15:13:23.791Z,15.90
2022-10-09T15:15:51.718Z,15.80
2022-10-09T15:18:20.913Z,15.80
2022-10-09T15:20:48.741Z,15.80
2022-10-09T15:23:16.644Z,15.70
2022-10-09T15:25:49.828Z,15.60
2022-10-09T15:28:18.850Z,15.60
2022-10-09T15:30:47.576Z,15.40
2022-10-09T15:33:15.442Z,15.70
2022-10-09T15:35:44.799Z,15.30
2022-10-09T15:38:15.772Z,15.20
2022-10-09T15:40:45.799Z,15.20
2022-10-09T15:43:13.952Z,15.20
2022-10-09T15:45:41.993Z,15.20
2022-10-09T15:48:15.529Z,15.10
2022-10-09T15:50:46.499Z,15.10
2022-10-09T15:53:15.114Z,15.00
2022-10-09T15:55:43.246Z,14.90
2022-10-09T15:58:11.220Z,14.80
2022-10-09T16:00:40.470Z,14.70
2022-10-09T16:03:09.104Z,14.60
2022-10-09T16:05:40.498Z,14.50
2022-10-09T16:08:11.144Z,14.40
2022-10-09T16:10:47.838Z,14.30
2022-10-09T16:13:17.327Z,14.30
2022-10-09T16:15:47.114Z,14.20
2022-10-09T16:18:16.210Z,14.10
2022-10-09T16:20:44.616Z,14.00
2022-10-09T16:23:14.958Z,13.90
2022-10-09T16:25:43.759Z,13.70
2022-10-09T16:28:13.478Z,13.80
2022-10-09T16:30:42.473Z,13.60
2022-10-09T16:33:12.794Z,13.60
2022-10-09T16:35:41.010Z,13.30
2022-10-09T16:38:08.989Z,13.20
2022-10-09T16:43:34.755Z,12.90
2022-10-09T16:46:16.103Z,12.70
2022-10-09T16:48:44.294Z,12.60
2022-10-09T16:51:14.323Z,12.50
2022-10-09T16:53:42.399Z,12.40
2022-10-09T16:56:14.046Z,12.30
2022-10-09T16:58:43.414Z,12.10
2022-10-09T17:01:12.360Z,12.00
2022-10-09T17:03:41.287Z,11.90
2022-10-09T17:06:10.545Z,11.80
2022-10-09T17:08:38.695Z,11.70
2022-10-09T17:11:10.066Z,11.60
2022-10-09T17:13:39.342Z,11.50
2022-10-09T17:16:08.284Z,11.40
2022-10-09T17:18:37.606Z,11.30
2022-10-09T17:21:07.426Z,11.20
2022-10-09T17:23:35.979Z,11.10
2022-10-09T17:26:06.956Z,11.10
2022-10-09T17:28:35.378Z,11.00
2022-10-09T17:31:05.508Z,10.90
2022-10-09T17:33:33.651Z,10.80
2022-10-09T17:36:03.487Z,10.70
2022-10-09T17:38:31.318Z,10.60
2022-10-09T17:40:59.192Z,10.50
2022-10-09T17:43:27.059Z,10.40
2022-10-09T17:45:54.886Z,10.30
2022-10-09T17:48:24.129Z,10.20
2022-10-09T17:50:53.370Z,10.10
2022-10-09T17:53:22.604Z,10.00
2022-10-09T17:55:51.771Z,9.90
2022-10-09T17:58:21.043Z,9.80
2022-10-09T18:00:49.665Z,9.70
2022-10-09T18:03:18.593Z,9.60
2022-10-09T18:05:49.544Z,9.50
2022-10-09T18:08:19.306Z,9.50
2022-10-09T18:10:47.694Z,9.40
2022-10-09T18:13:15.556Z,9.60
2022-10-09T18:15:45.026Z,9.20
2022-10-09T18:18:12.932Z,9.20
2022-10-09T18:20:41.374Z,9.10
2022-10-09T18:23:10.554Z,9.10
2022-10-09T18:25:42.542Z,9.00
2022-10-09T18:28:11.024Z,9.00
2022-10-09T18:30:42.219Z,8.90
2022-10-09T18:33:10.483Z,8.80
2022-10-09T18:35:38.946Z,8.80
2022-10-09T18:38:07.906Z,8.70
2022-10-09T18:40:45.213Z,8.70
2022-10-09T18:43:13.464Z,8.60
2022-10-09T18:45:46.885Z,8.50
2022-10-09T18:48:16.194Z,8.50
2022-10-09T18:50:44.959Z,8.40
2022-10-09T18:53:13.471Z,8.40
2022-10-09T18:55:44.867Z,8.40
2022-10-09T18:58:13.993Z,8.30
2022-10-09T19:00:42.207Z,8.30
2022-10-09T19:03:10.081Z,8.30
2022-10-09T19:05:38.045Z,8.30
2022-10-09T19:08:05.926Z,8.20
2022-10-09T19:10:33.830Z,8.20
2022-10-09T19:13:03.036Z,8.10
2022-10-09T19:15:31.010Z,8.10
2022-10-09T19:17:58.905Z,8.10
2022-10-09T19:20:28.839Z,8.00
2022-10-09T19:22:56.685Z,8.00
2022-10-09T19:25:24.549Z,7.90
2022-10-09T19:27:52.744Z,7.90
2022-10-09T19:30:22.037Z,7.80
2022-10-09T19:32:50.104Z,7.80
2022-10-09T19:35:18.231Z,7.70
2022-10-09T19:37:46.059Z,7.70
2022-10-09T19:40:13.889Z,7.60
2022-10-09T19:42:41.718Z,7.60
2022-10-09T19:45:10.543Z,7.50
2022-10-09T19:47:39.882Z,7.50
2022-10-09T19:50:07.999Z,7.40
2022-10-09T19:52:36.261Z,7.40
2022-10-09T19:55:04.231Z,7.30
2022-10-09T19:57:32.106Z,7.30
2022-10-09T19:59:59.992Z,7.30
2022-10-09T20:02:27.835Z,7.20
2022-10-09T20:04:57.003Z,7.30
2022-10-09T20:07:24.898Z,7.20
2022-10-09T20:09:52.734Z,7.10
2022-10-09T20:12:20.595Z,7.10
2022-10-09T20:14:48.537Z,7.00
2022-10-09T20:17:17.130Z,7.00
2022-10-09T20:19:45.878Z,6.90
2022-10-09T20:22:15.141Z,6.80
2022-10-09T20:24:43.005Z,6.80
2022-10-09T20:27:10.886Z,7.00
2022-10-09T20:29:38.923Z,7.00
2022-10-09T20:32:06.777Z,6.70
2022-10-09T20:34:34.632Z,7.50
2022-10-09T20:37:02.802Z,6.60
2022-10-09T20:39:32.015Z,6.60
2022-10-09T20:41:59.842Z,6.80
2022-10-09T20:44:27.712Z,7.00
2022-10-09T20:46:56.780Z,6.90
2022-10-09T20:49:24.707Z,6.60
2022-10-09T20:51:53.097Z,7.20
2022-10-09T20:54:22.622Z,6.50
2022-10-09T20:56:51.974Z,6.20
2022-10-09T20:59:20.121Z,6.20
2022-10-09T21:01:47.995Z,6.50
2022-10-09T21:04:15.840Z,6.00
2022-10-09T21:06:43.923Z,6.70
2022-10-09T21:09:11.788Z,6.00
2022-10-09T21:11:41.361Z,7.60
2022-10-09T21:14:11.098Z,6.90
2022-10-09T21:16:38.991Z,6.50
2022-10-09T21:19:08.442Z,5.80
2022-10-09T21:21:36.324Z,6.00
2022-10-09T21:24:04.554Z,5.90
2022-10-09T21:26:35.423Z,5.70
2022-10-09T21:29:04.384Z,5.70
2022-10-09T21:31:34.113Z,6.20
2022-10-09T21:34:02.964Z,6.10
2022-10-09T21:36:50.800Z,6.50
2022-10-09T21:39:27.236Z,6.50
2022-10-09T21:41:55.537Z,6.40
2022-10-09T21:44:23.377Z,5.60
2022-10-09T21:46:52.590Z,5.50
2022-10-09T21:49:22.209Z,5.80
2022-10-09T21:51:50.597Z,6.50
2022-10-09T21:54:18.575Z,5.40
2022-10-09T21:56:46.467Z,5.40
2022-10-09T21:59:14.505Z,5.40
2022-10-09T22:01:45.177Z,5.40
2022-10-09T22:04:14.419Z,5.40
2022-10-09T22:06:43.219Z,5.90
2022-10-09T22:09:11.243Z,5.40
2022-10-09T22:11:39.155Z,6.70
2022-10-09T22:14:08.169Z,5.40
2022-10-09T22:16:36.035Z,5.40
2022-10-09T22:19:03.896Z,5.40
2022-10-09T22:21:33.119Z,5.40
2022-10-09T22:24:00.986Z,6.30
2022-10-09T22:26:28.905Z,6.70
2022-10-09T22:28:56.828Z,5.40
2022-10-09T22:31:25.931Z,5.40
2022-10-09T22:33:55.674Z,5.60
2022-10-09T22:36:25.120Z,6.40
2022-10-09T22:38:56.351Z,5.40
2022-10-09T22:41:25.772Z,5.40
2022-10-09T22:43:55.972Z,5.40
2022-10-09T22:46:26.101Z,5.40
2022-10-09T22:48:54.375Z,5.40
2022-10-09T22:51:24.288Z,5.40
2022-10-09T22:53:52.183Z,5.30
2022-10-09T22:56:24.468Z,5.30
2022-10-09T22:58:53.495Z,5.40
2022-10-09T23:01:25.065Z,5.30
2022-10-09T23:03:53.047Z,5.30
2022-10-09T23:06:21.394Z,5.30
2022-10-09T23:08:49.760Z,5.20
2022-10-09T23:11:18.900Z,5.20
2022-10-09T23:13:48.939Z,5.30
2022-10-09T23:16:16.993Z,5.30
2022-10-09T23:18:45.079Z,5.90
2022-10-09T23:21:15.198Z,5.30
2022-10-09T23:23:44.338Z,5.50
2022-10-09T23:26:14.981Z,6.10
2022-10-09T23:28:44.392Z,5.20
2022-10-09T23:31:15.197Z,5.80
2022-10-09T23:33:44.892Z,5.20
2022-10-09T23:36:15.048Z,5.20
2022-10-09T23:38:43.338Z,6.50
2022-10-09T23:41:13.553Z,5.20
2022-10-09T23:43:42.939Z,5.20
2022-10-09T23:46:15.354Z,5.20
2022-10-09T23:48:43.569Z,4.90
2022-10-09T23:51:11.698Z,5.10
2022-10-09T23:53:39.561Z,5.10
2022-10-09T23:56:15.533Z,5.00
2022-10-09T23:58:43.405Z,5.00
